Time;durP1;ratioP1;P1;durP2;ratioP2;P2;SDS_P1;SDS_P2;PMS_P1;PMS_P2;Temp;Humidity;BMP_temperature;BMP_pressure;BME280_temperature;BME280_humidity;BME280_pressure;Samples;Min_cycle;Max_cycle;Signal;HPM_P1;HPM_P2
2023/08/04 00:00:38;;;;;;;3.33;1.75;;;;;;;15.68;100.00;97730.03;4190009;28;20052;-73
2023/08/04 00:02:39;;;;;;;3.60;1.48;;;;;;;15.71;100.00;97737.53;4188435;28;20063;-73
2023/08/04 00:04:39;;;;;;;2.08;1.70;;;;;;;15.71;100.00;97734.75;4189934;28;20519;-73
2023/08/04 00:06:39;;;;;;;2.58;1.85;;;;;;;15.66;100.00;97729.69;4190246;28;20040;-73
2023/08/04 00:08:40;;;;;;;2.95;1.95;;;;;;;15.64;100.00;97732.13;4189578;28;20127;-73
2023/08/04 00:10:40;;;;;;;1.60;1.50;;;;;;;15.68;100.00;97732.03;4190372;28;20384;-73
2023/08/04 00:12:40;;;;;;;2.28;2.05;;;;;;;15.67;100.00;97730.47;4190201;28;20547;-73
2023/08/04 00:14:41;;;;;;;1.80;1.58;;;;;;;15.71;100.00;97734.75;4189079;28;20044;-73
2023/08/04 00:16:41;;;;;;;3.60;1.90;;;;;;;15.71;100.00;97737.53;4189235;28;20383;-73
2023/08/04 00:18:41;;;;;;;2.35;1.55;;;;;;;15.69;100.00;97737.19;4189157;28;20037;-73
2023/08/04 00:20:41;;;;;;;2.13;1.60;;;;;;;15.67;100.00;97748.00;4189170;28;20032;-73
2023/08/04 00:22:42;;;;;;;2.15;1.58;;;;;;;15.67;100.00;97741.63;4188618;28;20063;-73
2023/08/04 00:24:42;;;;;;;3.88;2.03;;;;;;;15.68;100.00;97752.34;4188175;28;20152;-73
2023/08/04 00:26:42;;;;;;;2.72;1.58;;;;;;;15.67;100.00;97752.78;4189623;28;20488;-73
2023/08/04 00:28:43;;;;;;;2.53;1.70;;;;;;;15.65;100.00;97756.00;4190048;28;20440;-73
2023/08/04 00:30:43;;;;;;;2.30;1.90;;;;;;;15.64;100.00;97762.81;4189705;28;20120;-72
2023/08/04 00:32:43;;;;;;;3.70;1.95;;;;;;;15.70;100.00;97774.22;4188120;28;20048;-73
2023/08/04 00:34:44;;;;;;;1.90;1.50;;;;;;;15.70;100.00;97774.22;4189426;28;20133;-73
2023/08/04 00:36:45;;;;;;;1.90;1.45;;;;;;;15.72;100.00;97782.94;4189116;28;20032;-73
2023/08/04 00:38:45;;;;;;;3.00;1.75;;;;;;;15.74;100.00;97783.31;4189153;28;20684;-73
2023/08/04 00:40:46;;;;;;;4.00;1.83;;;;;;;15.77;100.00;97782.44;4189185;28;20064;-73
2023/08/04 00:42:46;;;;;;;2.63;1.92;;;;;;;15.77;100.00;97788.03;4188655;28;20062;-73
2023/08/04 00:44:46;;;;;;;2.85;1.52;;;;;;;15.76;100.00;97805.19;4189312;28;20432;-73
2023/08/04 00:46:47;;;;;;;2.17;1.65;;;;;;;15.75;100.00;97795.25;4188159;28;20544;-73
2023/08/04 00:48:47;;;;;;;2.97;1.75;;;;;;;15.73;100.00;97792.91;4189430;28;20510;-73
2023/08/04 00:50:48;;;;;;;2.33;1.80;;;;;;;15.71;100.00;97801.69;4188890;28;20037;-73
2023/08/04 00:52:49;;;;;;;2.47;1.60;;;;;;;15.74;100.00;97802.84;4188339;28;20044;-73
2023/08/04 00:54:49;;;;;;;2.13;1.42;;;;;;;15.73;100.00;97806.84;4189516;28;20924;-73
2023/08/04 00:56:53;;;;;;;5.38;1.98;;;;;;;15.70;100.00;97799.31;4188856;28;20051;-73
2023/08/04 00:58:53;;;;;;;2.75;1.73;;;;;;;15.78;100.00;97805.53;4188243;28;20068;-73
2023/08/04 01:00:55;;;;;;;3.10;1.58;;;;;;;15.78;100.00;97802.75;4188743;28;20411;-73
2023/08/04 01:02:56;;;;;;;1.80;1.40;;;;;;;15.78;100.00;97803.53;4188407;28;20504;-73
2023/08/04 01:04:56;;;;;;;2.72;1.60;;;;;;;15.78;100.00;97806.34;4188794;28;20203;-73
2023/08/04 01:07:18;;;;;;;1.77;1.40;;;;;;;15.78;100.00;97797.19;4189326;28;20037;-73
2023/08/04 01:09:41;;;;;;;2.83;1.83;;;;;;;15.77;100.00;97790.81;4188794;28;20412;-73
2023/08/04 01:11:55;;;;;;;2.13;1.42;;;;;;;15.75;100.00;97784.09;4188289;28;20068;-73
2023/08/04 01:13:58;;;;;;;3.58;1.77;;;;;;;15.75;100.00;97798.06;4188491;28;20045;-73
2023/08/04 01:15:59;;;;;;;;;;;;;;;15.73;100.00;97796.47;4189062;28;20185;-73
2023/08/04 01:17:59;;;;;;;2.00;1.40;;;;;;;15.71;100.00;97798.09;4188866;28;19981;-73
2023/08/04 01:19:59;;;;;;;2.50;1.45;;;;;;;15.70;100.00;97796.53;4189090;28;20041;-73
2023/08/04 01:22:00;;;;;;;2.63;1.45;;;;;;;15.70;100.00;97791.75;4188644;28;20032;-73
2023/08/04 01:24:00;;;;;;;3.20;1.60;;;;;;;15.69;100.00;97792.97;4189003;28;20383;-73
2023/08/04 01:26:02;;;;;;;2.17;1.42;;;;;;;15.68;100.00;97794.19;4189050;28;20531;-73
2023/08/04 01:28:11;;;;;;;2.58;1.70;;;;;;;15.67;100.00;97798.19;4187381;28;20055;-73
2023/08/04 01:30:18;;;;;;;3.08;1.60;;;;;;;15.66;100.00;97802.19;4188905;28;20119;-73
2023/08/04 01:32:18;;;;;;;2.38;1.65;;;;;;;15.64;100.00;97792.69;4191779;28;20033;-73
2023/08/04 01:34:19;;;;;;;2.40;2.00;;;;;;;15.62;100.00;97795.88;4192231;28;20075;-73
2023/08/04 01:36:19;;;;;;;3.22;1.52;;;;;;;15.61;100.00;97788.75;4192623;28;20028;-73
2023/08/04 01:38:20;;;;;;;2.90;1.70;;;;;;;15.62;100.00;97798.66;4192991;28;20040;-73
2023/08/04 01:40:20;;;;;;;5.00;1.75;;;;;;;15.63;100.00;97800.25;4191439;28;20052;-73
2023/08/04 01:42:20;;;;;;;3.92;1.98;;;;;;;15.61;100.00;97796.31;4191929;28;20493;-73
2023/08/04 01:44:21;;;;;;;2.85;1.80;;;;;;;15.60;100.00;97805.88;4190913;28;20403;-73
2023/08/04 01:46:21;;;;;;;4.15;2.15;;;;;;;15.58;100.00;97809.09;4191137;28;20048;-73
2023/08/04 01:48:21;;;;;;;3.72;1.60;;;;;;;15.55;100.00;97812.72;4191802;28;20133;-73
2023/08/04 01:50:22;;;;;;;2.28;1.60;;;;;;;15.57;100.00;97807.53;4191258;28;20163;-73
2023/08/04 01:52:23;;;;;;;3.17;1.90;;;;;;;15.55;100.00;97798.78;4191499;28;20052;-73
2023/08/04 01:54:23;;;;;;;4.10;1.48;;;;;;;15.54;100.00;97804.78;4191625;28;20136;-73
2023/08/04 01:56:23;;;;;;;3.50;1.50;;;;;;;15.55;100.00;97811.94;4191374;28;20441;-73
2023/08/04 01:58:24;;;;;;;2.42;1.58;;;;;;;15.54;100.00;97819.50;4191330;28;20045;-73
2023/08/04 02:00:24;;;;;;;2.88;1.67;;;;;;;15.54;100.00;97818.72;4189890;28;20040;-73
2023/08/04 02:02:25;;;;;;;2.40;1.60;;;;;;;15.54;100.00;97821.50;4191427;28;20075;-73
2023/08/04 02:04:25;;;;;;;3.05;1.60;;;;;;;15.54;100.00;97819.50;4191257;28;20037;-73
2023/08/04 02:06:25;;;;;;;2.15;1.55;;;;;;;15.54;100.00;97825.09;4190920;28;20551;-73
2023/08/04 02:08:26;;;;;;;2.75;1.85;;;;;;;15.53;100.00;97831.88;4191491;28;20090;-73
2023/08/04 02:10:26;;;;;;;1.80;1.48;;;;;;;15.51;100.00;97828.75;4191295;28;20032;-73
2023/08/04 02:12:26;;;;;;;3.35;1.67;;;;;;;15.48;100.00;97835.19;4190866;28;20039;-73
2023/08/04 02:14:29;;;;;;;3.00;1.80;;;;;;;15.46;100.00;97832.00;4190999;28;20325;-73
2023/08/04 02:16:30;;;;;;;3.65;1.80;;;;;;;15.42;100.00;97825.72;4191785;28;20510;-73
2023/08/04 02:18:30;;;;;;;3.97;2.10;;;;;;;15.42;100.00;97834.09;4191049;28;20313;-73
2023/08/04 02:20:30;;;;;;;3.10;2.00;;;;;;;15.38;100.00;97841.72;4190982;28;20055;-72
2023/08/04 02:22:31;;;;;;;6.25;2.15;;;;;;;15.37;100.00;97837.34;4190564;28;20135;-73
2023/08/04 02:24:31;;;;;;;4.63;2.00;;;;;;;15.33;100.00;97842.22;4190773;28;20124;-72
2023/08/04 02:26:32;;;;;;;3.53;1.90;;;;;;;15.29;100.00;97841.47;4191559;28;20060;-73
2023/08/04 02:28:32;;;;;;;3.33;2.30;;;;;;;15.30;100.00;97845.84;4190808;28;20087;-73
2023/08/04 02:30:32;;;;;;;4.97;2.38;;;;;;;15.25;100.00;97837.97;4191345;28;20040;-73
2023/08/04 02:32:33;;;;;;;3.83;2.13;;;;;;;15.24;100.00;97841.97;4190499;28;20072;-73
2023/08/04 02:34:33;;;;;;;2.15;1.88;;;;;;;15.25;100.00;97849.13;4190479;28;20039;-73
2023/08/04 02:36:33;;;;;;;4.50;2.20;;;;;;;15.15;100.00;97848.09;4191047;28;20506;-73
2023/08/04 02:38:33;;;;;;;3.22;2.28;;;;;;;15.14;100.00;97843.72;4190684;28;20059;-73
2023/08/04 02:40:37;;;;;;;3.38;2.10;;;;;;;15.14;100.00;97854.84;4190829;28;20033;-73
2023/08/04 02:42:37;;;;;;;3.30;2.10;;;;;;;14.95;100.00;97859.16;4189464;28;20108;-72
2023/08/04 02:44:38;;;;;;;6.07;3.30;;;;;;;14.81;100.00;97856.56;4190814;28;20075;-73
2023/08/04 02:46:38;;;;;;;5.15;2.20;;;;;;;14.80;100.00;97858.56;4191121;28;20366;-73
2023/08/04 02:48:39;;;;;;;3.05;2.13;;;;;;;14.84;100.00;97864.09;4190921;28;20051;-73
2023/08/04 02:50:40;;;;;;;4.07;2.55;;;;;;;14.69;100.00;97866.31;4190273;28;20052;-72
2023/08/04 02:52:40;;;;;;;5.53;2.30;;;;;;;14.64;100.00;97861.22;4190078;28;20076;-72
2023/08/04 02:54:41;;;;;;;5.43;2.65;;;;;;;14.50;100.00;97862.22;4190635;28;20204;-73
2023/08/04 02:56:41;;;;;;;4.50;2.20;;;;;;;14.51;100.00;97861.00;4190868;28;20043;-73
2023/08/04 02:58:43;;;;;;;2.40;2.03;;;;;;;14.55;100.00;97864.50;4189905;28;20068;-73
2023/08/04 03:00:43;;;;;;;4.27;2.50;;;;;;;14.56;100.00;97862.50;4190644;28;20136;-73
2023/08/04 03:02:43;;;;;;;4.38;2.85;;;;;;;14.54;100.00;97862.16;4190034;28;20075;-73
2023/08/04 03:04:44;;;;;;;3.45;2.80;;;;;;;14.49;100.00;97859.84;4190783;28;20159;-73
2023/08/04 03:06:44;;;;;;;4.57;2.70;;;;;;;14.49;100.00;97860.66;4190737;28;20449;-73
2023/08/04 03:08:44;;;;;;;4.28;2.80;;;;;;;14.48;100.00;97870.19;4190236;28;20132;-73
2023/08/04 03:10:45;;;;;;;5.20;2.95;;;;;;;14.49;100.00;97862.63;4190758;28;20484;-73
2023/08/04 03:12:45;;;;;;;3.53;2.65;;;;;;;14.44;100.00;97857.50;4189565;28;20045;-73
2023/08/04 03:14:45;;;;;;;3.10;2.08;;;;;;;14.43;100.00;97865.06;4189982;28;20056;-73
2023/08/04 03:16:46;;;;;;;3.05;2.22;;;;;;;14.45;100.00;97867.41;4190853;28;20549;-73
2023/08/04 03:18:46;;;;;;;2.95;2.15;;;;;;;14.50;100.00;97869.78;4190335;28;20692;-73
2023/08/04 03:20:46;;;;;;;3.08;2.35;;;;;;;14.49;100.00;97860.66;4190448;28;20048;-73
2023/08/04 03:22:46;;;;;;;7.53;2.78;;;;;;;14.53;100.00;97866.94;4189028;28;20105;-73
2023/08/04 03:24:47;;;;;;;4.60;2.35;;;;;;;14.54;100.00;97865.72;4189290;28;20487;-73
2023/08/04 03:26:47;;;;;;;4.45;2.60;;;;;;;14.55;100.00;97867.28;4190344;28;20496;-73
2023/08/04 03:28:48;;;;;;;4.13;2.40;;;;;;;14.51;100.00;97861.00;4190867;28;20059;-73
2023/08/04 03:30:48;;;;;;;3.28;2.30;;;;;;;14.56;100.00;97876.44;4191516;28;20506;-73
2023/08/04 03:32:48;;;;;;;5.35;2.20;;;;;;;14.57;100.00;97869.69;4189470;28;20602;-73
2023/08/04 03:34:49;;;;;;;2.92;2.22;;;;;;;14.55;100.00;97875.66;4190147;28;20052;-73
2023/08/04 03:36:49;;;;;;;4.72;2.10;;;;;;;14.48;100.00;97878.56;4190106;28;20126;-73
2023/08/04 03:38:49;;;;;;;3.85;2.20;;;;;;;14.46;100.00;97872.59;4190236;28;20550;-73
2023/08/04 03:40:50;;;;;;;3.47;2.08;;;;;;;14.49;100.00;97876.56;4189510;28;20051;-73
2023/08/04 03:42:51;;;;;;;2.40;2.20;;;;;;;14.47;100.00;97871.38;4188120;28;20428;-73
2023/08/04 03:44:51;;;;;;;4.47;2.20;;;;;;;14.48;100.00;97883.31;4190094;28;20028;-73
2023/08/04 03:46:51;;;;;;;4.95;2.40;;;;;;;14.48;100.00;97881.34;4191596;28;20079;-72
2023/08/04 03:48:52;;;;;;;2.85;2.40;;;;;;;14.47;100.00;97876.16;4190091;28;20155;-73
2023/08/04 03:50:52;;;;;;;4.38;2.15;;;;;;;14.49;100.00;97884.91;4189433;28;20047;-72
2023/08/04 03:52:52;;;;;;;3.15;2.20;;;;;;;14.43;100.00;97887.31;4189137;28;20395;-72
2023/08/04 03:54:53;;;;;;;3.15;2.35;;;;;;;14.43;100.00;97886.53;4189250;28;20480;-72
2023/08/04 03:56:53;;;;;;;3.38;2.25;;;;;;;14.42;100.00;97885.75;4189518;28;20044;-72
2023/08/04 03:58:53;;;;;;;5.53;2.72;;;;;;;14.32;100.00;97889.47;4189288;28;20076;-72
2023/08/04 04:00:54;;;;;;;2.55;2.28;;;;;;;14.30;100.00;97892.66;4187629;28;20091;-72
2023/08/04 04:02:54;;;;;;;4.65;2.50;;;;;;;14.31;100.00;97897.03;4188799;28;20078;-72
2023/08/04 04:04:54;;;;;;;4.82;2.78;;;;;;;14.32;100.00;97881.91;4190639;28;20041;-72
2023/08/04 04:06:55;;;;;;;4.30;2.35;;;;;;;14.32;100.00;97889.47;4189885;28;20041;-72
2023/08/04 04:08:55;;;;;;;3.10;2.00;;;;;;;14.29;100.00;97891.06;4189971;28;20492;-72
2023/08/04 04:10:56;;;;;;;2.40;2.20;;;;;;;14.29;100.00;97884.72;4184577;28;20059;-72
2023/08/04 04:12:56;;;;;;;3.53;2.30;;;;;;;14.32;100.00;97892.25;4188486;28;20065;-72
2023/08/04 04:14:56;;;;;;;2.72;2.33;;;;;;;14.29;100.00;97890.28;4190192;28;20037;-72
2023/08/04 04:16:57;;;;;;;3.58;2.38;;;;;;;14.30;100.00;97891.88;4188850;28;20459;-72
2023/08/04 04:18:57;;;;;;;4.95;2.33;;;;;;;14.28;100.00;97889.50;4189032;28;20044;-72
2023/08/04 04:20:57;;;;;;;4.53;2.70;;;;;;;14.29;100.00;97893.84;4188670;28;20068;-72
2023/08/04 04:22:58;;;;;;;4.18;2.97;;;;;;;14.28;100.00;97889.50;4188594;28;20055;-72
2023/08/04 04:24:58;;;;;;;2.40;2.20;;;;;;;14.33;100.00;97902.19;4189698;28;20045;-72
2023/08/04 04:26:58;;;;;;;4.22;2.63;;;;;;;14.31;100.00;97896.22;4189476;28;20503;-72
2023/08/04 04:28:59;;;;;;;3.45;2.60;;;;;;;14.31;100.00;97908.16;4187356;28;20044;-72
2023/08/04 04:31:05;;;;;;;3.67;3.00;;;;;;;14.32;100.00;97904.19;4187667;28;20040;-72
2023/08/04 04:33:05;;;;;;;5.80;2.70;;;;;;;14.36;100.00;97906.91;4185708;28;20044;-72
2023/08/04 04:35:06;;;;;;;4.03;2.67;;;;;;;14.40;100.00;97912.41;4184808;28;20124;-72
2023/08/04 04:37:06;;;;;;;4.40;2.60;;;;;;;14.42;100.00;97910.00;4186346;28;20048;-72
2023/08/04 04:39:08;;;;;;;4.20;2.90;;;;;;;14.43;100.00;97919.94;4187063;28;20048;-72
2023/08/04 04:41:09;;;;;;;4.63;2.80;;;;;;;14.48;100.00;97917.53;4184204;28;20184;-72
2023/08/04 04:43:09;;;;;;;4.88;2.72;;;;;;;14.54;100.00;97918.63;4187405;28;20051;-73
2023/08/04 04:45:10;;;;;;;4.53;2.80;;;;;;;14.55;100.00;97916.63;4186545;28;20041;-72
2023/08/04 04:47:11;;;;;;;4.22;2.92;;;;;;;14.57;100.00;97915.00;4188176;28;20495;-72
2023/08/04 04:49:11;;;;;;;5.07;2.60;;;;;;;14.59;100.00;97920.94;4189715;28;20473;-72
2023/08/04 04:51:12;;;;;;;4.82;2.63;;;;;;;14.63;100.00;97917.31;4188844;28;20051;-72
2023/08/04 04:53:13;;;;;;;4.63;2.30;;;;;;;14.65;100.00;97921.28;4189444;28;20033;-72
2023/08/04 04:55:13;;;;;;;5.53;2.80;;;;;;;14.64;100.00;97921.66;4188757;28;20401;-72
2023/08/04 04:57:13;;;;;;;3.50;2.85;;;;;;;14.63;100.00;97922.88;4189126;28;20301;-72
2023/08/04 04:59:14;;;;;;;3.35;2.80;;;;;;;14.64;100.00;97924.44;4189222;28;20028;-72
2023/08/04 05:01:14;;;;;;;3.97;2.75;;;;;;;14.61;100.00;97924.09;4187680;28;20041;-72
2023/08/04 05:03:15;;;;;;;4.72;3.00;;;;;;;14.64;100.00;97927.22;4188268;28;20095;-73
2023/08/04 05:05:15;;;;;;;2.80;2.60;;;;;;;14.72;100.00;97917.59;4132023;28;20075;-72
2023/08/04 05:07:15;;;;;;;4.53;3.00;;;;;;;14.70;100.00;97925.56;4190965;28;20040;-72
2023/08/04 05:09:16;;;;;;;6.78;2.72;;;;;;;14.66;100.00;97924.84;4173847;28;20869;-72
2023/08/04 05:11:16;;;;;;;4.70;3.30;;;;;;;14.70;100.00;97925.56;4191703;28;20059;-72
2023/08/04 05:13:16;;;;;;;3.67;2.90;;;;;;;14.70;100.00;97923.56;4191317;28;20049;-72
2023/08/04 05:15:17;;;;;;;4.53;2.97;;;;;;;14.78;100.00;97927.03;4191261;28;20056;-72
2023/08/04 05:17:17;;;;;;;4.85;3.15;;;;;;;14.73;100.00;97933.06;4192240;28;20110;-72
2023/08/04 05:19:17;;;;;;;5.90;3.20;;;;;;;14.77;100.00;97939.41;4192710;28;20056;-72
2023/08/04 05:21:18;;;;;;;6.60;3.20;;;;;;;14.81;100.00;97940.94;4174581;28;20489;-72
2023/08/04 05:23:18;;;;;;;3.78;2.88;;;;;;;14.86;100.00;97936.88;4191420;28;20155;-72
2023/08/04 05:25:18;;;;;;;12.27;4.38;;;;;;;14.91;100.00;97944.00;4191302;28;20044;-72
2023/08/04 05:27:19;;;;;;;5.63;3.13;;;;;;;14.90;100.00;97940.41;4192267;28;20125;-72
2023/08/04 05:29:19;;;;;;;7.15;3.50;;;;;;;14.92;100.00;97938.00;4191946;28;20076;-72
2023/08/04 05:31:19;;;;;;;6.47;2.92;;;;;;;15.01;100.00;97941.03;4189732;28;20449;-72
2023/08/04 05:33:20;;;;;;;4.93;3.05;;;;;;;15.02;100.00;97950.19;4189959;28;20124;-72
2023/08/04 05:35:20;;;;;;;6.70;3.15;;;;;;;14.94;100.00;97943.94;4189788;28;20135;-72
2023/08/04 05:37:20;;;;;;;3.28;2.83;;;;;;;14.98;100.00;97950.25;4190232;28;20068;-72
2023/08/04 05:39:20;;;;;;;7.95;3.72;;;;;;;14.87;100.00;97952.38;4189611;28;20075;-72
2023/08/04 05:41:21;;;;;;;6.85;3.50;;;;;;;14.83;100.00;97954.44;4190003;28;20040;-72
2023/08/04 05:43:23;;;;;;;7.47;3.30;;;;;;;14.83;100.00;97954.44;4189735;28;20551;-72
2023/08/04 05:45:23;;;;;;;7.28;3.70;;;;;;;14.93;100.00;97959.06;4190013;28;20507;-72
2023/08/04 05:47:26;;;;;;;4.43;3.40;;;;;;;14.97;100.00;97962.56;4190056;28;20132;-72
2023/08/04 05:49:26;;;;;;;;;;;;;;;14.98;100.00;97963.38;4190938;28;20044;-72
2023/08/04 05:51:26;;;;;;;7.07;3.08;;;;;;;15.05;100.00;97964.03;4191594;28;19927;-72
2023/08/04 05:53:27;;;;;;;5.43;3.30;;;;;;;15.03;100.00;97962.91;4190980;28;20040;-72
2023/08/04 05:55:27;;;;;;;6.03;3.30;;;;;;;14.98;100.00;97968.97;4191279;28;20036;-72
2023/08/04 05:57:27;;;;;;;8.57;4.25;;;;;;;14.92;100.00;97965.84;4191962;28;20044;-72
2023/08/04 05:59:28;;;;;;;4.65;3.70;;;;;;;14.99;100.00;97974.09;4191317;28;20487;-72
2023/08/04 06:01:28;;;;;;;7.78;3.17;;;;;;;15.02;100.00;97983.63;4191855;28;20056;-72
2023/08/04 06:03:28;;;;;;;6.22;3.53;;;;;;;15.08;100.00;97984.72;4190997;28;20037;-72
2023/08/04 06:05:29;;;;;;;5.32;3.33;;;;;;;15.09;100.00;97980.72;4191538;28;20131;-72
2023/08/04 06:07:29;;;;;;;6.75;4.10;;;;;;;15.08;100.00;97979.94;4191007;28;20560;-72
2023/08/04 06:09:29;;;;;;;4.75;3.25;;;;;;;15.16;100.00;97992.56;4191312;28;20071;-72
2023/08/04 06:11:30;;;;;;;7.65;4.40;;;;;;;15.07;100.00;97995.09;4191886;28;20040;-72
2023/08/04 06:13:30;;;;;;;5.93;3.85;;;;;;;15.13;100.00;97995.38;4190606;28;20044;-72
2023/08/04 06:15:30;;;;;;;7.00;3.53;;;;;;;15.18;100.00;97995.72;4189850;28;20040;-72
2023/08/04 06:17:32;;;;;;;6.72;3.47;;;;;;;15.18;100.00;97998.50;4190557;28;20076;-72
2023/08/04 06:19:32;;;;;;;4.80;3.72;;;;;;;15.22;100.00;98006.00;4191231;28;20037;-72
2023/08/04 06:21:35;;;;;;;4.60;3.70;;;;;;;15.18;100.00;98004.06;4190568;28;20044;-72
2023/08/04 06:23:36;;;;;;;4.55;3.13;;;;;;;15.30;100.00;98010.25;4190454;28;20036;-72
2023/08/04 06:25:36;;;;;;;5.22;3.08;;;;;;;15.39;100.00;98002.16;4191519;28;20041;-72
2023/08/04 06:27:36;;;;;;;6.25;3.05;;;;;;;15.45;100.00;98003.28;4190601;28;20515;-72
2023/08/04 06:29:37;;;;;;;4.07;3.05;;;;;;;15.48;100.00;98008.03;4191362;28;20495;-72
2023/08/04 06:31:37;;;;;;;5.82;3.50;;;;;;;15.54;100.00;98014.66;4191470;28;20549;-72
2023/08/04 06:33:38;;;;;;;7.40;3.20;;;;;;;15.55;100.00;98016.25;4190192;28;20133;-72
2023/08/04 06:35:41;;;;;;;4.68;3.35;;;;;;;15.60;100.00;98015.78;4190583;28;20075;-72
2023/08/04 06:37:41;;;;;;;4.20;2.63;;;;;;;15.59;100.00;98017.00;4190764;28;20108;-72
2023/08/04 06:39:42;;;;;;;4.28;3.25;;;;;;;15.56;100.00;98025.44;4191452;28;20093;-72
2023/08/04 06:41:42;;;;;;;6.47;3.08;;;;;;;15.55;100.00;98021.81;4190662;28;20050;-72
2023/08/04 06:43:42;;;;;;;4.50;2.75;;;;;;;15.57;100.00;98033.38;4190175;28;20039;-73
2023/08/04 06:45:43;;;;;;;4.45;2.97;;;;;;;15.57;100.00;98027.00;4190998;28;20072;-72
2023/08/04 06:47:43;;;;;;;4.88;3.13;;;;;;;15.58;100.00;98031.38;4190681;28;20079;-72
2023/08/04 06:49:44;;;;;;;7.25;3.03;;;;;;;15.57;100.00;98036.16;4190381;28;20630;-72
2023/08/04 06:51:44;;;;;;;6.88;3.13;;;;;;;15.62;100.00;98034.91;4190685;28;20074;-72
2023/08/04 06:53:45;;;;;;;3.65;2.75;;;;;;;15.65;100.00;98034.84;4190149;28;20044;-72
2023/08/04 06:55:45;;;;;;;4.95;3.13;;;;;;;15.68;100.00;98036.00;4190884;28;20074;-72
2023/08/04 06:57:45;;;;;;;4.88;2.90;;;;;;;15.77;100.00;98043.84;4189862;28;20068;-72
2023/08/04 06:59:45;;;;;;;4.07;3.25;;;;;;;15.74;100.00;98037.13;4190878;28;20044;-72
2023/08/04 07:01:46;;;;;;;4.18;2.70;;;;;;;15.68;100.00;98036.00;4190778;28;20060;-72
2023/08/04 07:03:49;;;;;;;8.10;3.33;;;;;;;15.68;100.00;98036.00;4189784;28;20040;-72
2023/08/04 07:05:49;;;;;;;5.72;3.05;;;;;;;15.74;100.00;98039.91;4172428;28;20288;-72
2023/08/04 07:07:51;;;;;;;4.00;2.83;;;;;;;15.78;100.00;98039.84;4190688;28;20139;-72
2023/08/04 07:09:51;;;;;;;6.97;3.23;;;;;;;15.82;100.00;98046.94;4190493;28;20048;-72
2023/08/04 07:11:52;;;;;;;4.53;2.65;;;;;;;15.82;100.00;98041.38;4190716;28;20153;-72
2023/08/04 07:13:52;;;;;;;6.30;2.53;;;;;;;15.83;100.00;98048.50;4190147;28;20040;-72
2023/08/04 07:15:57;;;;;;;4.00;2.90;;;;;;;15.73;100.00;98036.31;4190444;28;20546;-72
2023/08/04 07:17:57;;;;;;;5.68;2.75;;;;;;;15.80;100.00;98043.75;4190535;28;20222;-72
2023/08/04 07:19:57;;;;;;;6.18;3.08;;;;;;;15.87;100.00;98048.44;4189817;28;20135;-72
2023/08/04 07:21:58;;;;;;;7.05;3.15;;;;;;;15.94;100.00;98049.13;4190158;28;20075;-72
2023/08/04 07:23:58;;;;;;;8.07;3.15;;;;;;;15.99;100.00;98045.84;4189647;28;20448;-73
2023/08/04 07:25:58;;;;;;;7.07;3.75;;;;;;;15.97;100.00;98039.09;4189830;28;20046;-72
2023/08/04 07:27:59;;;;;;;11.85;3.17;;;;;;;16.04;100.00;98047.34;4190294;28;20083;-72
2023/08/04 07:29:59;;;;;;;4.45;3.00;;;;;;;16.08;100.00;98053.69;4190235;28;20095;-72
2023/08/04 07:31:59;;;;;;;3.38;2.88;;;;;;;16.00;100.00;98041.06;4189236;28;20045;-72
2023/08/04 07:34:00;;;;;;;5.18;2.95;;;;;;;15.99;100.00;98054.22;4189199;28;20797;-72
2023/08/04 07:36:01;;;;;;;5.80;3.05;;;;;;;15.98;100.00;98055.44;4189986;28;20395;-72
2023/08/04 07:38:02;;;;;;;5.40;2.95;;;;;;;15.97;100.00;98058.63;4189321;28;20133;-73
2023/08/04 07:40:02;;;;;;;5.32;3.20;;;;;;;16.04;100.00;98054.94;4190104;28;20067;-73
2023/08/04 07:42:03;;;;;;;4.03;3.03;;;;;;;16.02;100.00;98060.94;4189988;28;20024;-73
2023/08/04 07:44:04;;;;;;;5.55;2.97;;;;;;;16.07;100.00;98065.28;4189427;28;20028;-72
2023/08/04 07:46:04;;;;;;;4.85;2.88;;;;;;;16.13;100.00;98055.97;4189855;28;20056;-73
2023/08/04 07:48:04;;;;;;;12.23;5.07;;;;;;;16.13;100.00;98064.34;4189582;28;20028;-73
2023/08/04 07:50:06;;;;;;;7.50;3.10;;;;;;;16.23;100.00;98057.81;4189672;28;20036;-72
2023/08/04 07:52:06;;;;;;;7.40;3.28;;;;;;;16.22;100.00;98066.59;4189946;28;20032;-73
2023/08/04 07:54:06;;;;;;;7.03;3.15;;;;;;;16.19;100.00;98067.44;4189077;28;20035;-73
2023/08/04 07:56:07;;;;;;;3.70;2.78;;;;;;;16.19;100.00;98067.44;4190224;28;20452;-73
2023/08/04 07:58:08;;;;;;;4.70;3.08;;;;;;;16.16;100.00;98071.88;4189705;28;20086;-73
2023/08/04 08:00:09;;;;;;;6.20;2.70;;;;;;;16.23;100.00;98068.19;4189431;28;20242;-73
2023/08/04 08:02:10;;;;;;;4.68;2.80;;;;;;;16.24;100.00;98069.75;4188661;28;20443;-73
2023/08/04 08:04:10;;;;;;;4.32;2.97;;;;;;;16.27;100.00;98078.03;4171190;28;20055;-73
2023/08/04 08:06:10;;;;;;;4.95;2.60;;;;;;;16.19;100.00;98068.22;4188997;28;20031;-73
2023/08/04 08:08:11;;;;;;;5.07;2.72;;;;;;;16.18;100.00;98077.03;4189794;28;20503;-73
2023/08/04 08:10:11;;;;;;;6.55;3.42;;;;;;;16.21;100.00;98082.53;4189798;28;20137;-72
2023/08/04 08:12:11;;;;;;;4.85;2.80;;;;;;;16.29;100.00;98080.41;4190133;28;20137;-72
2023/08/04 08:14:12;;;;;;;6.55;2.70;;;;;;;16.34;100.00;98079.94;4188630;28;20028;-73
2023/08/04 08:16:15;;;;;;;5.07;2.28;;;;;;;16.40;100.00;98080.25;4189852;28;20456;-73
2023/08/04 08:18:15;;;;;;;6.10;2.70;;;;;;;16.35;100.00;98089.09;4189029;28;20028;-73
2023/08/04 08:20:15;;;;;;;4.50;2.72;;;;;;;16.36;100.00;98087.88;4189369;28;20043;-73
2023/08/04 08:22:16;;;;;;;3.75;2.28;;;;;;;16.43;100.00;98087.75;4189773;28;20064;-73
2023/08/04 08:24:16;;;;;;;7.05;2.85;;;;;;;16.49;100.00;98084.03;4188806;28;20024;-72
2023/08/04 08:26:16;;;;;;;5.75;2.78;;;;;;;16.51;100.00;98092.00;4189149;28;20036;-73
2023/08/04 08:28:17;;;;;;;4.28;2.30;;;;;;;16.56;100.00;98095.09;4189379;28;20037;-72
2023/08/04 08:30:17;;;;;;;5.15;2.40;;;;;;;16.51;100.00;98084.41;4189761;28;20584;-73
2023/08/04 08:32:17;;;;;;;6.22;2.72;;;;;;;16.62;100.00;98098.16;4188969;28;20097;-73
2023/08/04 08:34:18;;;;;;;3.22;2.50;;;;;;;16.68;100.00;98088.06;4188367;28;20423;-72
2023/08/04 08:36:19;;;;;;;7.35;3.20;;;;;;;16.78;100.00;98086.31;4188526;28;20123;-73
2023/08/04 08:38:19;;;;;;;5.80;2.70;;;;;;;16.90;100.00;98093.28;4189239;28;20028;-73
2023/08/04 08:40:23;;;;;;;8.23;2.60;;;;;;;17.01;100.00;98091.84;4188253;28;20474;-73
2023/08/04 08:42:23;;;;;;;5.25;2.67;;;;;;;16.91;100.00;98090.06;4188764;28;20086;-73
2023/08/04 08:44:23;;;;;;;5.07;2.50;;;;;;;17.08;100.00;98090.91;4189358;28;20442;-73
2023/08/04 08:46:25;;;;;;;6.13;2.80;;;;;;;17.26;100.00;98093.31;4188818;28;20353;-73
2023/08/04 08:48:26;;;;;;;7.15;2.80;;;;;;;17.35;100.00;98097.09;4189215;28;20468;-73
2023/08/04 08:50:27;;;;;;;6.50;2.78;;;;;;;17.34;100.00;98092.75;4189446;28;20044;-73
2023/08/04 08:52:31;;;;;;;5.30;2.78;;;;;;;17.31;100.00;98099.22;4188939;28;20453;-73
2023/08/04 08:54:33;;;;;;;5.25;2.60;;;;;;;17.28;100.00;98099.28;4188838;28;20488;-73
2023/08/04 08:56:34;;;;;;;5.45;2.47;;;;;;;17.38;100.00;98099.06;4189200;28;20067;-73
2023/08/04 08:58:35;;;;;;;5.03;2.67;;;;;;;17.38;100.00;98104.66;4188896;28;20540;-73
2023/08/04 09:00:36;;;;;;;5.00;2.55;;;;;;;17.37;100.00;98100.25;4189162;28;20056;-73
2023/08/04 09:02:36;;;;;;;10.32;3.33;;;;;;;17.47;100.00;98106.84;4188304;28;20041;-73
2023/08/04 09:04:37;;;;;;;8.05;3.10;;;;;;;17.49;100.00;98106.41;4189420;28;20431;-73
2023/08/04 09:06:38;;;;;;;5.90;2.60;;;;;;;17.55;100.00;98104.69;4189396;28;20503;-73
2023/08/04 09:08:38;;;;;;;3.90;2.55;;;;;;;17.58;100.00;98117.81;4188958;28;20040;-73
2023/08/04 09:10:39;;;;;;;3.80;2.58;;;;;;;17.59;100.00;98103.38;4189062;28;20047;-73
2023/08/04 09:12:39;;;;;;;7.57;2.70;;;;;;;17.50;100.00;98102.41;4188310;28;20041;-73
2023/08/04 09:14:53;;;;;;;8.80;2.67;;;;;;;17.64;100.00;98114.06;4188457;28;20044;-73
2023/08/04 09:16:54;;;;;;;5.10;2.60;;;;;;;17.68;100.00;98116.75;4188915;28;20042;-73
2023/08/04 09:19:00;;;;;;;5.40;2.72;;;;;;;17.70;100.00;98105.94;4189440;28;20112;-73
2023/08/04 09:21:11;;;;;;;6.28;2.70;;;;;;;17.82;100.00;98124.09;4171113;28;20055;-73
2023/08/04 09:23:11;;;;;;;6.40;3.05;;;;;;;17.84;100.00;98110.44;4188480;28;20048;-73